Terminal Aerodrome Forecast
Issued by NWS

Home | Current Version | Previous Version | Text Only | Print | Product List | Glossary On
Versions: 1 2 3 4 5 6 7 8 9 10 11 12 13 14 15 16 17 18
000
FTUS46 KSEW 222333
TAFHQM
TAF
KHQM 222333Z 2300/2324 16021G28KT P6SM VCSH OVC009
     FM230200 18022G30KT 5SM BR OVC009
     FM230600 20020G27KT 5SM -RA OVC009
     FM231800 21015G23KT 5SM -SHRA OVC019=

USA.gov is the U.S. government's official web portal to all federal, state and local government web resources and services.